sensor_id;sensor_type;location;lat;lon;timestamp;temperature;humidity
6293;DHT22;3179;54.350;10.102;2023-03-30T00:02:20;10.20;99.90
6293;DHT22;3179;54.350;10.102;2023-03-30T00:04:48;10.10;99.90
6293;DHT22;3179;54.350;10.102;2023-03-30T00:07:15;10.20;99.90
6293;DHT22;3179;54.350;10.102;2023-03-30T00:09:42;10.10;99.90
6293;DHT22;3179;54.350;10.102;2023-03-30T00:12:08;10.10;99.90
6293;DHT22;3179;54.350;10.102;2023-03-30T00:14:36;10.20;99.90
6293;DHT22;3179;54.350;10.102;2023-03-30T00:17:08;10.10;99.90
6293;DHT22;3179;54.350;10.102;2023-03-30T00:19:35;10.10;99.90
6293;DHT22;3179;54.350;10.102;2023-03-30T00:22:03;10.20;99.90
6293;DHT22;3179;54.350;10.102;2023-03-30T00:24:30;10.10;99.90
6293;DHT22;3179;54.350;10.102;2023-03-30T00:26:57;10.10;99.90
6293;DHT22;3179;54.350;10.102;2023-03-30T00:29:23;10.20;99.90
6293;DHT22;3179;54.350;10.102;2023-03-30T00:31:50;10.10;99.90
6293;DHT22;3179;54.350;10.102;2023-03-30T00:34:19;10.10;99.90
6293;DHT22;3179;54.350;10.102;2023-03-30T00:36:46;10.20;99.90
6293;DHT22;3179;54.350;10.102;2023-03-30T00:39:14;10.20;99.90
6293;DHT22;3179;54.350;10.102;2023-03-30T00:41:43;10.20;99.90
6293;DHT22;3179;54.350;10.102;2023-03-30T00:47:10;10.20;99.90
6293;DHT22;3179;54.350;10.102;2023-03-30T00:49:39;10.20;99.90
6293;DHT22;3179;54.350;10.102;2023-03-30T00:52:07;10.20;99.90
6293;DHT22;3179;54.350;10.102;2023-03-30T00:54:33;10.20;99.90
6293;DHT22;3179;54.350;10.102;2023-03-30T00:57:00;10.20;99.90
6293;DHT22;3179;54.350;10.102;2023-03-30T00:59:28;10.20;99.90
6293;DHT22;3179;54.350;10.102;2023-03-30T01:01:55;10.20;99.90
6293;DHT22;3179;54.350;10.102;2023-03-30T01:04:22;10.20;99.90
6293;DHT22;3179;54.350;10.102;2023-03-30T01:06:52;10.20;99.90
6293;DHT22;3179;54.350;10.102;2023-03-30T01:09:19;10.20;99.90
6293;DHT22;3179;54.350;10.102;2023-03-30T01:11:47;10.20;99.90
6293;DHT22;3179;54.350;10.102;2023-03-30T01:14:15;10.20;99.90
6293;DHT22;3179;54.350;10.102;2023-03-30T01:16:48;10.20;99.90
6293;DHT22;3179;54.350;10.102;2023-03-30T01:19:46;10.20;99.90
6293;DHT22;3179;54.350;10.102;2023-03-30T01:22:33;10.20;99.90
6293;DHT22;3179;54.350;10.102;2023-03-30T01:25:26;10.20;99.90
6293;DHT22;3179;54.350;10.102;2023-03-30T01:28:20;10.20;99.90
6293;DHT22;3179;54.350;10.102;2023-03-30T01:34:48;10.20;99.90
6293;DHT22;3179;54.350;10.102;2023-03-30T01:37:46;10.20;99.90
6293;DHT22;3179;54.350;10.102;2023-03-30T01:40:21;10.20;99.90
6293;DHT22;3179;54.350;10.102;2023-03-30T01:42:57;10.20;99.90
6293;DHT22;3179;54.350;10.102;2023-03-30T01:45:30;10.20;99.90
6293;DHT22;3179;54.350;10.102;2023-03-30T01:48:06;10.20;99.90
6293;DHT22;3179;54.350;10.102;2023-03-30T01:50:38;10.20;99.90
6293;DHT22;3179;54.350;10.102;2023-03-30T01:53:13;10.20;99.90
6293;DHT22;3179;54.350;10.102;2023-03-30T01:55:44;10.20;99.90
6293;DHT22;3179;54.350;10.102;2023-03-30T01:58:16;10.20;99.90
6293;DHT22;3179;54.350;10.102;2023-03-30T02:00:45;10.20;99.90
6293;DHT22;3179;54.350;10.102;2023-03-30T02:03:16;10.20;99.90
6293;DHT22;3179;54.350;10.102;2023-03-30T02:05:48;10.20;99.90
6293;DHT22;3179;54.350;10.102;2023-03-30T02:08:19;10.20;99.90
6293;DHT22;3179;54.350;10.102;2023-03-30T02:10:49;10.20;99.90
6293;DHT22;3179;54.350;10.102;2023-03-30T02:13:17;10.20;99.90
6293;DHT22;3179;54.350;10.102;2023-03-30T02:15:47;10.20;99.90
6293;DHT22;3179;54.350;10.102;2023-03-30T02:18:15;10.20;99.90
6293;DHT22;3179;54.350;10.102;2023-03-30T02:20:42;10.20;99.90
6293;DHT22;3179;54.350;10.102;2023-03-30T02:23:09;10.20;99.90
6293;DHT22;3179;54.350;10.102;2023-03-30T02:25:36;10.20;99.90
6293;DHT22;3179;54.350;10.102;2023-03-30T02:28:05;10.20;99.90
6293;DHT22;3179;54.350;10.102;2023-03-30T02:30:33;10.20;99.90
6293;DHT22;3179;54.350;10.102;2023-03-30T02:33:02;10.20;99.90
6293;DHT22;3179;54.350;10.102;2023-03-30T02:39:05;10.30;99.90
6293;DHT22;3179;54.350;10.102;2023-03-30T02:41:50;10.30;99.90
6293;DHT22;3179;54.350;10.102;2023-03-30T02:44:29;10.30;99.90
6293;DHT22;3179;54.350;10.102;2023-03-30T02:47:03;10.30;99.90
6293;DHT22;3179;54.350;10.102;2023-03-30T02:49:43;10.20;99.90
6293;DHT22;3179;54.350;10.102;2023-03-30T02:52:22;10.30;99.90
6293;DHT22;3179;54.350;10.102;2023-03-30T02:54:56;10.30;99.90
6293;DHT22;3179;54.350;10.102;2023-03-30T02:57:29;10.30;99.90
6293;DHT22;3179;54.350;10.102;2023-03-30T03:00:04;10.30;99.90
6293;DHT22;3179;54.350;10.102;2023-03-30T03:02:38;10.30;99.90
6293;DHT22;3179;54.350;10.102;2023-03-30T03:05:06;10.20;99.90
6293;DHT22;3179;54.350;10.102;2023-03-30T03:07:34;10.20;99.90
6293;DHT22;3179;54.350;10.102;2023-03-30T03:10:01;10.20;99.90
6293;DHT22;3179;54.350;10.102;2023-03-30T03:12:28;10.20;99.90
6293;DHT22;3179;54.350;10.102;2023-03-30T03:14:54;10.20;99.90
6293;DHT22;3179;54.350;10.102;2023-03-30T03:17:23;10.30;99.90
6293;DHT22;3179;54.350;10.102;2023-03-30T03:19:54;10.30;99.90
6293;DHT22;3179;54.350;10.102;2023-03-30T03:22:21;10.30;99.90
6293;DHT22;3179;54.350;10.102;2023-03-30T03:24:47;10.30;99.90
6293;DHT22;3179;54.350;10.102;2023-03-30T03:27:14;10.30;99.90
6293;DHT22;3179;54.350;10.102;2023-03-30T03:29:41;10.30;99.90
6293;DHT22;3179;54.350;10.102;2023-03-30T03:32:07;10.30;99.90
6293;DHT22;3179;54.350;10.102;2023-03-30T03:34:36;10.30;99.90
6293;DHT22;3179;54.350;10.102;2023-03-30T03:37:04;10.30;99.90
6293;DHT22;3179;54.350;10.102;2023-03-30T03:39:31;10.30;99.90
6293;DHT22;3179;54.350;10.102;2023-03-30T03:41:57;10.30;99.90
6293;DHT22;3179;54.350;10.102;2023-03-30T03:44:24;10.30;99.90
6293;DHT22;3179;54.350;10.102;2023-03-30T03:46:51;10.30;99.90
6293;DHT22;3179;54.350;10.102;2023-03-30T03:49:18;10.30;99.90
6293;DHT22;3179;54.350;10.102;2023-03-30T03:51:46;10.30;99.90
6293;DHT22;3179;54.350;10.102;2023-03-30T03:54:13;10.30;99.90
6293;DHT22;3179;54.350;10.102;2023-03-30T03:56:40;10.30;99.90
6293;DHT22;3179;54.350;10.102;2023-03-30T03:59:06;10.30;99.90
6293;DHT22;3179;54.350;10.102;2023-03-30T04:01:33;10.30;99.90
6293;DHT22;3179;54.350;10.102;2023-03-30T04:04:00;10.30;99.90
6293;DHT22;3179;54.350;10.102;2023-03-30T04:06:26;10.30;99.90
6293;DHT22;3179;54.350;10.102;2023-03-30T04:08:55;10.30;99.90
6293;DHT22;3179;54.350;10.102;2023-03-30T04:11:21;10.30;99.90
6293;DHT22;3179;54.350;10.102;2023-03-30T04:13:48;10.30;99.90
6293;DHT22;3179;54.350;10.102;2023-03-30T04:16:15;10.40;99.90
6293;DHT22;3179;54.350;10.102;2023-03-30T04:18:42;10.30;99.90
6293;DHT22;3179;54.350;10.102;2023-03-30T04:21:08;10.40;99.90
6293;DHT22;3179;54.350;10.102;2023-03-30T04:23:38;10.40;99.90
6293;DHT22;3179;54.350;10.102;2023-03-30T04:26:11;10.40;99.90
6293;DHT22;3179;54.350;10.102;2023-03-30T04:28:40;10.40;99.90
6293;DHT22;3179;54.350;10.102;2023-03-30T04:31:08;10.40;99.90
6293;DHT22;3179;54.350;10.102;2023-03-30T04:33:38;10.40;99.90
6293;DHT22;3179;54.350;10.102;2023-03-30T04:36:10;10.40;99.90
6293;DHT22;3179;54.350;10.102;2023-03-30T04:38:37;10.40;99.90
6293;DHT22;3179;54.350;10.102;2023-03-30T04:41:07;10.40;99.90
6293;DHT22;3179;54.350;10.102;2023-03-30T04:43:36;10.40;99.90
6293;DHT22;3179;54.350;10.102;2023-03-30T04:46:03;10.40;99.90
6293;DHT22;3179;54.350;10.102;2023-03-30T04:48:30;10.40;99.90
6293;DHT22;3179;54.350;10.102;2023-03-30T04:50:57;10.40;99.90
6293;DHT22;3179;54.350;10.102;2023-03-30T04:53:24;10.40;99.90
6293;DHT22;3179;54.350;10.102;2023-03-30T04:55:50;10.40;99.90
6293;DHT22;3179;54.350;10.102;2023-03-30T04:58:17;10.50;99.90
6293;DHT22;3179;54.350;10.102;2023-03-30T05:00:45;10.50;99.90
6293;DHT22;3179;54.350;10.102;2023-03-30T05:03:12;10.50;99.90
6293;DHT22;3179;54.350;10.102;2023-03-30T05:05:39;10.50;99.90
6293;DHT22;3179;54.350;10.102;2023-03-30T05:08:05;10.50;99.90
6293;DHT22;3179;54.350;10.102;2023-03-30T05:10:32;10.50;99.90
6293;DHT22;3179;54.350;10.102;2023-03-30T05:12:59;10.50;99.90
6293;DHT22;3179;54.350;10.102;2023-03-30T05:15:26;10.50;99.90
6293;DHT22;3179;54.350;10.102;2023-03-30T05:17:54;10.50;99.90
6293;DHT22;3179;54.350;10.102;2023-03-30T05:20:21;10.50;99.90
6293;DHT22;3179;54.350;10.102;2023-03-30T05:22:49;10.50;99.90
6293;DHT22;3179;54.350;10.102;2023-03-30T05:25:16;10.50;99.90
6293;DHT22;3179;54.350;10.102;2023-03-30T05:27:42;10.50;99.90
6293;DHT22;3179;54.350;10.102;2023-03-30T05:30:10;10.50;99.90
6293;DHT22;3179;54.350;10.102;2023-03-30T05:32:37;10.50;99.90
6293;DHT22;3179;54.350;10.102;2023-03-30T05:35:06;10.50;99.90
6293;DHT22;3179;54.350;10.102;2023-03-30T05:37:33;10.50;99.90
6293;DHT22;3179;54.350;10.102;2023-03-30T05:40:00;10.60;99.90
6293;DHT22;3179;54.350;10.102;2023-03-30T05:42:30;10.50;99.90
6293;DHT22;3179;54.350;10.102;2023-03-30T05:44:57;10.60;99.90
6293;DHT22;3179;54.350;10.102;2023-03-30T05:47:24;10.60;99.90
6293;DHT22;3179;54.350;10.102;2023-03-30T05:49:53;10.60;99.90
6293;DHT22;3179;54.350;10.102;2023-03-30T05:52:21;10.60;99.90
6293;DHT22;3179;54.350;10.102;2023-03-30T05:54:48;10.60;99.90
6293;DHT22;3179;54.350;10.102;2023-03-30T05:57:15;10.60;99.90
6293;DHT22;3179;54.350;10.102;2023-03-30T05:59:42;10.70;99.90
6293;DHT22;3179;54.350;10.102;2023-03-30T06:02:09;10.70;99.90
6293;DHT22;3179;54.350;10.102;2023-03-30T06:04:37;10.70;99.90
6293;DHT22;3179;54.350;10.102;2023-03-30T06:07:04;10.70;99.90
6293;DHT22;3179;54.350;10.102;2023-03-30T06:09:32;10.80;99.90
6293;DHT22;3179;54.350;10.102;2023-03-30T06:11:59;10.80;99.90
6293;DHT22;3179;54.350;10.102;2023-03-30T06:14:25;10.80;99.90
6293;DHT22;3179;54.350;10.102;2023-03-30T06:16:52;10.80;99.90
6293;DHT22;3179;54.350;10.102;2023-03-30T06:19:19;10.80;99.90
6293;DHT22;3179;54.350;10.102;2023-03-30T06:21:46;10.80;99.90
6293;DHT22;3179;54.350;10.102;2023-03-30T06:24:13;10.80;99.90
6293;DHT22;3179;54.350;10.102;2023-03-30T06:26:41;10.80;99.90
6293;DHT22;3179;54.350;10.102;2023-03-30T06:29:08;10.80;99.90
6293;DHT22;3179;54.350;10.102;2023-03-30T06:31:35;10.80;99.90
6293;DHT22;3179;54.350;10.102;2023-03-30T06:34:01;10.80;99.90
6293;DHT22;3179;54.350;10.102;2023-03-30T06:36:28;10.90;99.90
6293;DHT22;3179;54.350;10.102;2023-03-30T06:38:55;10.80;99.90
6293;DHT22;3179;54.350;10.102;2023-03-30T06:41:22;10.80;99.90
6293;DHT22;3179;54.350;10.102;2023-03-30T06:43:50;10.90;99.90
6293;DHT22;3179;54.350;10.102;2023-03-30T06:46:16;10.90;99.90
6293;DHT22;3179;54.350;10.102;2023-03-30T06:48:43;10.90;99.90
6293;DHT22;3179;54.350;10.102;2023-03-30T06:51:13;10.90;99.90
6293;DHT22;3179;54.350;10.102;2023-03-30T06:53:40;10.90;99.90
6293;DHT22;3179;54.350;10.102;2023-03-30T06:56:08;11.00;99.90
6293;DHT22;3179;54.350;10.102;2023-03-30T06:58:36;11.00;99.90
6293;DHT22;3179;54.350;10.102;2023-03-30T07:01:12;11.00;99.90
6293;DHT22;3179;54.350;10.102;2023-03-30T07:03:39;11.00;99.90
6293;DHT22;3179;54.350;10.102;2023-03-30T07:06:07;11.00;99.90
6293;DHT22;3179;54.350;10.102;2023-03-30T07:08:35;11.00;99.90
6293;DHT22;3179;54.350;10.102;2023-03-30T07:11:02;11.10;99.90
6293;DHT22;3179;54.350;10.102;2023-03-30T07:13:29;11.00;99.90
6293;DHT22;3179;54.350;10.102;2023-03-30T07:15:57;11.00;99.90
6293;DHT22;3179;54.350;10.102;2023-03-30T07:18:25;11.00;99.90
6293;DHT22;3179;54.350;10.102;2023-03-30T07:20:52;11.00;99.90
6293;DHT22;3179;54.350;10.102;2023-03-30T07:23:18;11.00;99.90
6293;DHT22;3179;54.350;10.102;2023-03-30T07:25:46;11.10;99.90
6293;DHT22;3179;54.350;10.102;2023-03-30T07:28:12;11.10;99.90
6293;DHT22;3179;54.350;10.102;2023-03-30T07:30:39;11.10;99.90
6293;DHT22;3179;54.350;10.102;2023-03-30T07:33:06;11.10;99.90
6293;DHT22;3179;54.350;10.102;2023-03-30T07:35:34;11.10;99.90
6293;DHT22;3179;54.350;10.102;2023-03-30T07:38:01;11.10;99.90
6293;DHT22;3179;54.350;10.102;2023-03-30T07:40:28;11.20;99.90
6293;DHT22;3179;54.350;10.102;2023-03-30T07:42:55;11.30;99.90
6293;DHT22;3179;54.350;10.102;2023-03-30T07:45:22;11.40;99.90
6293;DHT22;3179;54.350;10.102;2023-03-30T07:47:48;11.50;99.90
6293;DHT22;3179;54.350;10.102;2023-03-30T07:50:15;11.50;99.90
6293;DHT22;3179;54.350;10.102;2023-03-30T07:52:44;11.50;99.90
6293;DHT22;3179;54.350;10.102;2023-03-30T07:55:10;11.50;99.90
6293;DHT22;3179;54.350;10.102;2023-03-30T07:57:37;11.60;99.90
6293;DHT22;3179;54.350;10.102;2023-03-30T08:00:05;11.60;99.90
6293;DHT22;3179;54.350;10.102;2023-03-30T08:02:34;11.60;99.90
6293;DHT22;3179;54.350;10.102;2023-03-30T08:05:01;11.60;99.90
6293;DHT22;3179;54.350;10.102;2023-03-30T08:07:28;11.70;99.90
6293;DHT22;3179;54.350;10.102;2023-03-30T08:09:56;11.70;99.90
6293;DHT22;3179;54.350;10.102;2023-03-30T08:12:23;11.80;99.90
6293;DHT22;3179;54.350;10.102;2023-03-30T08:14:50;11.90;99.90
6293;DHT22;3179;54.350;10.102;2023-03-30T08:17:17;11.90;99.90
6293;DHT22;3179;54.350;10.102;2023-03-30T08:19:45;11.90;99.90
6293;DHT22;3179;54.350;10.102;2023-03-30T08:22:12;12.00;99.90
6293;DHT22;3179;54.350;10.102;2023-03-30T08:24:39;11.90;99.90
6293;DHT22;3179;54.350;10.102;2023-03-30T08:27:07;11.90;99.90
6293;DHT22;3179;54.350;10.102;2023-03-30T08:29:34;12.00;99.90
6293;DHT22;3179;54.350;10.102;2023-03-30T08:32:01;12.00;99.90
6293;DHT22;3179;54.350;10.102;2023-03-30T08:34:28;12.00;99.90
6293;DHT22;3179;54.350;10.102;2023-03-30T08:36:54;12.00;99.90
6293;DHT22;3179;54.350;10.102;2023-03-30T08:39:22;12.00;99.90
6293;DHT22;3179;54.350;10.102;2023-03-30T08:42:04;12.00;99.90
6293;DHT22;3179;54.350;10.102;2023-03-30T08:44:38;12.10;99.90
6293;DHT22;3179;54.350;10.102;2023-03-30T08:47:10;12.10;99.90
6293;DHT22;3179;54.350;10.102;2023-03-30T08:49:40;12.20;99.90
6293;DHT22;3179;54.350;10.102;2023-03-30T08:52:12;12.20;99.90
6293;DHT22;3179;54.350;10.102;2023-03-30T08:54:42;12.20;99.90
6293;DHT22;3179;54.350;10.102;2023-03-30T08:57:16;12.20;99.90
6293;DHT22;3179;54.350;10.102;2023-03-30T08:59:52;12.30;99.90
6293;DHT22;3179;54.350;10.102;2023-03-30T09:02:25;12.30;99.90
6293;DHT22;3179;54.350;10.102;2023-03-30T09:04:58;12.40;99.90
6293;DHT22;3179;54.350;10.102;2023-03-30T09:07:30;12.40;99.90
6293;DHT22;3179;54.350;10.102;2023-03-30T09:09:58;12.40;99.90
6293;DHT22;3179;54.350;10.102;2023-03-30T09:12:37;12.40;99.90
6293;DHT22;3179;54.350;10.102;2023-03-30T09:15:14;12.40;99.90
6293;DHT22;3179;54.350;10.102;2023-03-30T09:17:44;12.40;99.90
6293;DHT22;3179;54.350;10.102;2023-03-30T09:20:15;12.40;99.90
6293;DHT22;3179;54.350;10.102;2023-03-30T09:22:46;12.40;99.90
6293;DHT22;3179;54.350;10.102;2023-03-30T09:25:16;12.40;99.90
6293;DHT22;3179;54.350;10.102;2023-03-30T09:27:50;12.50;99.90
6293;DHT22;3179;54.350;10.102;2023-03-30T09:30:24;12.50;99.90
6293;DHT22;3179;54.350;10.102;2023-03-30T09:32:59;12.50;99.90
6293;DHT22;3179;54.350;10.102;2023-03-30T09:35:37;12.50;99.90
6293;DHT22;3179;54.350;10.102;2023-03-30T09:38:06;12.50;99.90
6293;DHT22;3179;54.350;10.102;2023-03-30T09:40:53;12.60;99.90
6293;DHT22;3179;54.350;10.102;2023-03-30T09:43:31;12.80;99.90
6293;DHT22;3179;54.350;10.102;2023-03-30T09:46:04;13.00;99.90
6293;DHT22;3179;54.350;10.102;2023-03-30T09:48:37;13.00;99.90
6293;DHT22;3179;54.350;10.102;2023-03-30T09:51:14;13.00;99.90
6293;DHT22;3179;54.350;10.102;2023-03-30T09:53:42;13.10;99.90
6293;DHT22;3179;54.350;10.102;2023-03-30T09:56:17;13.20;99.90
6293;DHT22;3179;54.350;10.102;2023-03-30T09:58:44;13.20;99.90
6293;DHT22;3179;54.350;10.102;2023-03-30T10:01:14;13.30;99.90
6293;DHT22;3179;54.350;10.102;2023-03-30T10:03:43;13.30;99.90
6293;DHT22;3179;54.350;10.102;2023-03-30T10:06:14;13.30;99.90
6293;DHT22;3179;54.350;10.102;2023-03-30T10:08:47;13.40;99.90
6293;DHT22;3179;54.350;10.102;2023-03-30T10:11:18;13.40;99.90
6293;DHT22;3179;54.350;10.102;2023-03-30T10:13:48;13.40;99.90
6293;DHT22;3179;54.350;10.102;2023-03-30T10:16:22;13.40;99.90
6293;DHT22;3179;54.350;10.102;2023-03-30T10:18:52;13.40;99.90
6293;DHT22;3179;54.350;10.102;2023-03-30T10:21:21;13.40;99.90
6293;DHT22;3179;54.350;10.102;2023-03-30T10:24:01;13.50;99.90
6293;DHT22;3179;54.350;10.102;2023-03-30T10:26:29;13.50;99.90
6293;DHT22;3179;54.350;10.102;2023-03-30T10:29:00;13.50;99.90
6293;DHT22;3179;54.350;10.102;2023-03-30T10:31:32;13.60;99.90
6293;DHT22;3179;54.350;10.102;2023-03-30T10:34:02;13.60;99.90
6293;DHT22;3179;54.350;10.102;2023-03-30T10:36:31;13.60;99.90
6293;DHT22;3179;54.350;10.102;2023-03-30T10:39:10;13.60;99.90
6293;DHT22;3179;54.350;10.102;2023-03-30T10:41:39;13.70;99.90
6293;DHT22;3179;54.350;10.102;2023-03-30T10:44:17;13.70;99.90
6293;DHT22;3179;54.350;10.102;2023-03-30T10:46:47;13.80;99.90
6293;DHT22;3179;54.350;10.102;2023-03-30T10:49:24;13.90;99.90
6293;DHT22;3179;54.350;10.102;2023-03-30T10:52:02;13.90;99.90
6293;DHT22;3179;54.350;10.102;2023-03-30T10:54:38;13.90;99.90
6293;DHT22;3179;54.350;10.102;2023-03-30T10:57:09;14.00;99.90
6293;DHT22;3179;54.350;10.102;2023-03-30T11:00:02;14.00;99.90
6293;DHT22;3179;54.350;10.102;2023-03-30T11:02:45;14.00;99.90
6293;DHT22;3179;54.350;10.102;2023-03-30T11:05:17;14.00;99.90
6293;DHT22;3179;54.350;10.102;2023-03-30T11:07:47;14.00;99.90
6293;DHT22;3179;54.350;10.102;2023-03-30T11:10:18;14.10;99.90
6293;DHT22;3179;54.350;10.102;2023-03-30T11:12:50;14.10;99.90
6293;DHT22;3179;54.350;10.102;2023-03-30T11:15:23;14.00;99.90
6293;DHT22;3179;54.350;10.102;2023-03-30T11:17:59;14.00;99.90
6293;DHT22;3179;54.350;10.102;2023-03-30T11:20:30;14.00;99.90
6293;DHT22;3179;54.350;10.102;2023-03-30T11:23:12;13.90;99.90
6293;DHT22;3179;54.350;10.102;2023-03-30T11:25:51;13.90;99.90
6293;DHT22;3179;54.350;10.102;2023-03-30T11:28:35;13.80;99.90
6293;DHT22;3179;54.350;10.102;2023-03-30T11:31:13;13.80;99.90
6293;DHT22;3179;54.350;10.102;2023-03-30T11:33:45;13.70;99.90
6293;DHT22;3179;54.350;10.102;2023-03-30T11:36:18;13.70;99.90
6293;DHT22;3179;54.350;10.102;2023-03-30T11:38:52;13.60;99.90
6293;DHT22;3179;54.350;10.102;2023-03-30T11:41:26;13.60;99.90
6293;DHT22;3179;54.350;10.102;2023-03-30T11:43:54;13.60;99.90
6293;DHT22;3179;54.350;10.102;2023-03-30T11:46:26;13.70;99.90
6293;DHT22;3179;54.350;10.102;2023-03-30T11:49:07;13.80;99.90
6293;DHT22;3179;54.350;10.102;2023-03-30T11:51:48;14.00;99.90
6293;DHT22;3179;54.350;10.102;2023-03-30T11:54:49;14.10;99.90
6293;DHT22;3179;54.350;10.102;2023-03-30T11:57:24;14.20;99.90
6293;DHT22;3179;54.350;10.102;2023-03-30T12:00:06;14.20;99.90
6293;DHT22;3179;54.350;10.102;2023-03-30T12:02:44;14.20;99.90
6293;DHT22;3179;54.350;10.102;2023-03-30T12:05:20;14.10;99.90
6293;DHT22;3179;54.350;10.102;2023-03-30T12:07:58;14.00;99.90
6293;DHT22;3179;54.350;10.102;2023-03-30T12:10:32;13.90;99.90
6293;DHT22;3179;54.350;10.102;2023-03-30T12:13:01;13.80;99.90
6293;DHT22;3179;54.350;10.102;2023-03-30T12:15:36;13.70;99.90
6293;DHT22;3179;54.350;10.102;2023-03-30T12:18:14;13.60;99.90
6293;DHT22;3179;54.350;10.102;2023-03-30T12:20:48;13.60;99.90
6293;DHT22;3179;54.350;10.102;2023-03-30T12:23:34;13.50;99.90
6293;DHT22;3179;54.350;10.102;2023-03-30T12:26:09;13.50;99.90
6293;DHT22;3179;54.350;10.102;2023-03-30T12:28:42;13.70;99.90
6293;DHT22;3179;54.350;10.102;2023-03-30T12:31:09;13.70;99.90
6293;DHT22;3179;54.350;10.102;2023-03-30T12:33:45;13.80;99.90
6293;DHT22;3179;54.350;10.102;2023-03-30T12:36:29;13.80;99.90
6293;DHT22;3179;54.350;10.102;2023-03-30T12:38:58;13.90;99.90
6293;DHT22;3179;54.350;10.102;2023-03-30T12:41:28;14.00;99.90
6293;DHT22;3179;54.350;10.102;2023-03-30T12:44:19;13.90;99.90
6293;DHT22;3179;54.350;10.102;2023-03-30T12:46:56;13.90;99.90
6293;DHT22;3179;54.350;10.102;2023-03-30T12:49:34;13.90;99.90
6293;DHT22;3179;54.350;10.102;2023-03-30T12:52:09;13.80;99.90
6293;DHT22;3179;54.350;10.102;2023-03-30T12:55:00;13.80;99.90
6293;DHT22;3179;54.350;10.102;2023-03-30T12:57:36;13.70;99.90
6293;DHT22;3179;54.350;10.102;2023-03-30T13:03:33;13.70;99.90
6293;DHT22;3179;54.350;10.102;2023-03-30T13:06:03;13.80;99.90
6293;DHT22;3179;54.350;10.102;2023-03-30T13:08:36;13.80;99.90
6293;DHT22;3179;54.350;10.102;2023-03-30T13:11:11;13.80;99.90
6293;DHT22;3179;54.350;10.102;2023-03-30T13:13:48;13.70;99.90
6293;DHT22;3179;54.350;10.102;2023-03-30T13:19:21;13.70;99.90
6293;DHT22;3179;54.350;10.102;2023-03-30T13:21:55;13.80;99.90
6293;DHT22;3179;54.350;10.102;2023-03-30T13:24:31;13.90;99.90
6293;DHT22;3179;54.350;10.102;2023-03-30T13:27:19;13.90;99.90
6293;DHT22;3179;54.350;10.102;2023-03-30T13:29:53;13.90;99.90
6293;DHT22;3179;54.350;10.102;2023-03-30T13:32:26;13.90;99.90
6293;DHT22;3179;54.350;10.102;2023-03-30T13:35:08;14.00;99.90
6293;DHT22;3179;54.350;10.102;2023-03-30T13:37:56;14.00;99.90
6293;DHT22;3179;54.350;10.102;2023-03-30T13:40:32;14.00;99.90
6293;DHT22;3179;54.350;10.102;2023-03-30T13:43:07;14.00;99.90
6293;DHT22;3179;54.350;10.102;2023-03-30T13:45:43;14.10;99.90
6293;DHT22;3179;54.350;10.102;2023-03-30T13:48:23;14.10;99.90
6293;DHT22;3179;54.350;10.102;2023-03-30T13:50:56;14.20;99.90
6293;DHT22;3179;54.350;10.102;2023-03-30T13:53:25;14.30;99.90
6293;DHT22;3179;54.350;10.102;2023-03-30T13:55:55;14.30;99.90
6293;DHT22;3179;54.350;10.102;2023-03-30T13:58:26;14.30;99.90
6293;DHT22;3179;54.350;10.102;2023-03-30T14:00:59;14.30;99.90
6293;DHT22;3179;54.350;10.102;2023-03-30T14:03:31;14.30;99.90
6293;DHT22;3179;54.350;10.102;2023-03-30T14:06:01;14.30;99.90
6293;DHT22;3179;54.350;10.102;2023-03-30T14:08:31;14.30;99.90
6293;DHT22;3179;54.350;10.102;2023-03-30T14:11:03;14.40;99.90
6293;DHT22;3179;54.350;10.102;2023-03-30T14:13:32;14.50;99.90
6293;DHT22;3179;54.350;10.102;2023-03-30T14:16:02;14.50;99.90
6293;DHT22;3179;54.350;10.102;2023-03-30T14:18:28;14.50;99.90
6293;DHT22;3179;54.350;10.102;2023-03-30T14:20:56;14.40;99.90
6293;DHT22;3179;54.350;10.102;2023-03-30T14:23:30;14.50;99.90
6293;DHT22;3179;54.350;10.102;2023-03-30T14:25:59;14.60;99.90
6293;DHT22;3179;54.350;10.102;2023-03-30T14:28:32;14.50;99.90
6293;DHT22;3179;54.350;10.102;2023-03-30T14:31:02;14.50;99.90
6293;DHT22;3179;54.350;10.102;2023-03-30T14:33:30;14.40;99.90
6293;DHT22;3179;54.350;10.102;2023-03-30T14:35:59;14.40;99.90
6293;DHT22;3179;54.350;10.102;2023-03-30T14:38:30;14.30;99.90
6293;DHT22;3179;54.350;10.102;2023-03-30T14:41:05;14.30;99.90
6293;DHT22;3179;54.350;10.102;2023-03-30T14:43:34;14.20;99.90
6293;DHT22;3179;54.350;10.102;2023-03-30T14:46:04;14.20;99.90
6293;DHT22;3179;54.350;10.102;2023-03-30T14:48:33;14.20;99.90
6293;DHT22;3179;54.350;10.102;2023-03-30T14:51:01;14.10;99.90
6293;DHT22;3179;54.350;10.102;2023-03-30T14:53:29;14.00;99.90
6293;DHT22;3179;54.350;10.102;2023-03-30T14:55:58;13.90;99.90
6293;DHT22;3179;54.350;10.102;2023-03-30T14:58:27;13.90;99.90
6293;DHT22;3179;54.350;10.102;2023-03-30T15:00:58;13.90;99.90
6293;DHT22;3179;54.350;10.102;2023-03-30T15:03:27;13.90;99.90
6293;DHT22;3179;54.350;10.102;2023-03-30T15:05:58;13.90;99.90
6293;DHT22;3179;54.350;10.102;2023-03-30T15:08:26;13.80;99.90
6293;DHT22;3179;54.350;10.102;2023-03-30T15:10:56;13.80;99.90
6293;DHT22;3179;54.350;10.102;2023-03-30T15:13:29;13.70;99.90
6293;DHT22;3179;54.350;10.102;2023-03-30T15:15:58;13.70;99.90
6293;DHT22;3179;54.350;10.102;2023-03-30T15:18:27;13.70;99.90
6293;DHT22;3179;54.350;10.102;2023-03-30T15:20:55;13.60;99.90
6293;DHT22;3179;54.350;10.102;2023-03-30T15:23:24;13.50;99.90
6293;DHT22;3179;54.350;10.102;2023-03-30T15:25:55;13.60;99.90
6293;DHT22;3179;54.350;10.102;2023-03-30T15:28:23;13.50;99.90
6293;DHT22;3179;54.350;10.102;2023-03-30T15:30:52;13.50;99.90
6293;DHT22;3179;54.350;10.102;2023-03-30T15:33:22;13.50;99.90
6293;DHT22;3179;54.350;10.102;2023-03-30T15:35:51;13.40;99.90
6293;DHT22;3179;54.350;10.102;2023-03-30T15:38:26;13.40;99.90
6293;DHT22;3179;54.350;10.102;2023-03-30T15:40:53;13.40;99.90
6293;DHT22;3179;54.350;10.102;2023-03-30T15:43:22;13.40;99.90
6293;DHT22;3179;54.350;10.102;2023-03-30T15:45:52;13.40;99.90
6293;DHT22;3179;54.350;10.102;2023-03-30T15:48:26;13.40;99.90
6293;DHT22;3179;54.350;10.102;2023-03-30T15:50:58;13.30;99.90
6293;DHT22;3179;54.350;10.102;2023-03-30T15:53:39;13.40;99.90
6293;DHT22;3179;54.350;10.102;2023-03-30T15:56:11;13.30;99.90
6293;DHT22;3179;54.350;10.102;2023-03-30T15:58:43;13.40;99.90
6293;DHT22;3179;54.350;10.102;2023-03-30T16:01:12;13.30;99.90
6293;DHT22;3179;54.350;10.102;2023-03-30T16:03:49;13.30;99.90
6293;DHT22;3179;54.350;10.102;2023-03-30T16:06:16;13.40;99.90
6293;DHT22;3179;54.350;10.102;2023-03-30T16:08:45;13.40;99.90
6293;DHT22;3179;54.350;10.102;2023-03-30T16:11:12;13.40;99.90
6293;DHT22;3179;54.350;10.102;2023-03-30T16:13:43;13.40;99.90
6293;DHT22;3179;54.350;10.102;2023-03-30T16:16:10;13.40;99.90
6293;DHT22;3179;54.350;10.102;2023-03-30T16:18:38;13.40;99.90
6293;DHT22;3179;54.350;10.102;2023-03-30T16:21:07;13.40;99.90
6293;DHT22;3179;54.350;10.102;2023-03-30T16:23:35;13.40;99.90
6293;DHT22;3179;54.350;10.102;2023-03-30T16:26:02;13.40;99.90